sensor_id;sensor_type;location;lat;lon;timestamp;P1;durP1;ratioP1;P2;durP2;ratioP2
19149;SDS011;9707;49.158;8.632;2022-12-13T00:01:51;20.42;;;13.30;;
19149;SDS011;9707;49.158;8.632;2022-12-13T00:04:17;22.58;;;15.00;;
19149;SDS011;9707;49.158;8.632;2022-12-13T00:06:44;21.75;;;14.13;;
19149;SDS011;9707;49.158;8.632;2022-12-13T00:09:14;23.90;;;14.35;;
19149;SDS011;9707;49.158;8.632;2022-12-13T00:11:41;21.58;;;14.93;;
19149;SDS011;9707;49.158;8.632;2022-12-13T00:14:07;23.00;;;14.25;;
19149;SDS011;9707;49.158;8.632;2022-12-13T00:16:32;21.15;;;14.23;;
19149;SDS011;9707;49.158;8.632;2022-12-13T00:18:58;21.65;;;13.68;;
19149;SDS011;9707;49.158;8.632;2022-12-13T00:21:25;21.67;;;14.48;;
19149;SDS011;9707;49.158;8.632;2022-12-13T00:23:52;22.48;;;14.98;;
19149;SDS011;9707;49.158;8.632;2022-12-13T00:26:19;22.65;;;14.18;;
19149;SDS011;9707;49.158;8.632;2022-12-13T00:28:46;22.10;;;14.23;;
19149;SDS011;9707;49.158;8.632;2022-12-13T00:31:13;22.05;;;14.18;;
19149;SDS011;9707;49.158;8.632;2022-12-13T00:33:39;24.63;;;14.75;;
19149;SDS011;9707;49.158;8.632;2022-12-13T00:36:04;21.60;;;14.23;;
19149;SDS011;9707;49.158;8.632;2022-12-13T00:38:31;23.38;;;14.80;;
19149;SDS011;9707;49.158;8.632;2022-12-13T00:40:57;22.15;;;14.73;;
19149;SDS011;9707;49.158;8.632;2022-12-13T00:43:22;21.27;;;14.02;;
19149;SDS011;9707;49.158;8.632;2022-12-13T00:45:47;25.45;;;15.40;;
19149;SDS011;9707;49.158;8.632;2022-12-13T00:48:13;21.73;;;14.60;;
19149;SDS011;9707;49.158;8.632;2022-12-13T00:50:38;25.63;;;15.80;;
19149;SDS011;9707;49.158;8.632;2022-12-13T00:53:04;24.08;;;14.43;;
19149;SDS011;9707;49.158;8.632;2022-12-13T00:55:30;23.80;;;15.43;;
19149;SDS011;9707;49.158;8.632;2022-12-13T00:57:55;19.20;;;12.10;;
19149;SDS011;9707;49.158;8.632;2022-12-13T01:00:20;23.25;;;13.82;;
19149;SDS011;9707;49.158;8.632;2022-12-13T01:02:46;22.27;;;14.65;;
19149;SDS011;9707;49.158;8.632;2022-12-13T01:05:11;21.27;;;14.15;;
19149;SDS011;9707;49.158;8.632;2022-12-13T01:07:37;22.50;;;15.20;;
19149;SDS011;9707;49.158;8.632;2022-12-13T01:10:04;21.48;;;14.10;;
19149;SDS011;9707;49.158;8.632;2022-12-13T01:12:31;24.08;;;14.73;;
19149;SDS011;9707;49.158;8.632;2022-12-13T01:14:57;25.58;;;14.98;;
19149;SDS011;9707;49.158;8.632;2022-12-13T01:17:22;26.95;;;15.68;;
19149;SDS011;9707;49.158;8.632;2022-12-13T01:19:47;23.23;;;14.75;;
19149;SDS011;9707;49.158;8.632;2022-12-13T01:22:13;22.30;;;14.75;;
19149;SDS011;9707;49.158;8.632;2022-12-13T01:24:38;22.88;;;14.10;;
19149;SDS011;9707;49.158;8.632;2022-12-13T01:27:03;23.17;;;15.20;;
19149;SDS011;9707;49.158;8.632;2022-12-13T01:29:29;23.35;;;14.88;;
19149;SDS011;9707;49.158;8.632;2022-12-13T01:31:55;24.33;;;14.90;;
19149;SDS011;9707;49.158;8.632;2022-12-13T01:34:21;25.85;;;16.50;;
19149;SDS011;9707;49.158;8.632;2022-12-13T01:36:47;26.38;;;16.45;;
19149;SDS011;9707;49.158;8.632;2022-12-13T01:39:13;19.77;;;14.18;;
19149;SDS011;9707;49.158;8.632;2022-12-13T01:41:44;21.40;;;14.30;;
19149;SDS011;9707;49.158;8.632;2022-12-13T01:47:15;22.00;;;14.25;;
19149;SDS011;9707;49.158;8.632;2022-12-13T01:49:48;24.33;;;15.10;;
19149;SDS011;9707;49.158;8.632;2022-12-13T01:52:14;22.42;;;15.02;;
19149;SDS011;9707;49.158;8.632;2022-12-13T01:54:42;22.98;;;14.95;;
19149;SDS011;9707;49.158;8.632;2022-12-13T01:57:10;23.45;;;14.30;;
19149;SDS011;9707;49.158;8.632;2022-12-13T01:59:37;21.95;;;14.43;;
19149;SDS011;9707;49.158;8.632;2022-12-13T02:02:05;23.10;;;15.05;;
19149;SDS011;9707;49.158;8.632;2022-12-13T02:04:39;23.20;;;15.75;;
19149;SDS011;9707;49.158;8.632;2022-12-13T02:07:13;26.13;;;16.50;;
19149;SDS011;9707;49.158;8.632;2022-12-13T02:09:40;28.35;;;16.30;;
19149;SDS011;9707;49.158;8.632;2022-12-13T02:12:08;24.67;;;15.75;;
19149;SDS011;9707;49.158;8.632;2022-12-13T02:14:34;24.98;;;15.55;;
19149;SDS011;9707;49.158;8.632;2022-12-13T02:30:48;24.73;;;15.35;;
19149;SDS011;9707;49.158;8.632;2022-12-13T02:42:10;25.33;;;15.65;;
19149;SDS011;9707;49.158;8.632;2022-12-13T02:44:09;21.08;;;13.80;;
19149;SDS011;9707;49.158;8.632;2022-12-13T02:46:42;23.38;;;15.15;;
19149;SDS011;9707;49.158;8.632;2022-12-13T02:49:16;21.30;;;14.18;;
19149;SDS011;9707;49.158;8.632;2022-12-13T02:51:44;22.50;;;14.45;;
19149;SDS011;9707;49.158;8.632;2022-12-13T02:54:11;22.58;;;14.57;;
19149;SDS011;9707;49.158;8.632;2022-12-13T02:56:36;24.42;;;14.95;;
19149;SDS011;9707;49.158;8.632;2022-12-13T02:59:02;23.08;;;14.10;;
19149;SDS011;9707;49.158;8.632;2022-12-13T03:08:02;27.02;;;15.90;;
19149;SDS011;9707;49.158;8.632;2022-12-13T03:16:30;26.75;;;15.73;;
19149;SDS011;9707;49.158;8.632;2022-12-13T03:19:03;23.30;;;14.73;;
19149;SDS011;9707;49.158;8.632;2022-12-13T03:21:38;25.80;;;15.00;;
19149;SDS011;9707;49.158;8.632;2022-12-13T03:24:03;23.08;;;14.52;;
19149;SDS011;9707;49.158;8.632;2022-12-13T03:26:29;21.45;;;14.45;;
19149;SDS011;9707;49.158;8.632;2022-12-13T03:28:54;23.00;;;14.65;;
19149;SDS011;9707;49.158;8.632;2022-12-13T03:31:20;25.70;;;15.65;;
19149;SDS011;9707;49.158;8.632;2022-12-13T03:33:45;25.60;;;15.40;;
19149;SDS011;9707;49.158;8.632;2022-12-13T03:36:11;23.42;;;15.02;;
19149;SDS011;9707;49.158;8.632;2022-12-13T03:38:37;25.52;;;15.57;;
19149;SDS011;9707;49.158;8.632;2022-12-13T03:41:08;27.60;;;16.50;;
19149;SDS011;9707;49.158;8.632;2022-12-13T03:43:36;24.50;;;15.60;;
19149;SDS011;9707;49.158;8.632;2022-12-13T03:46:02;26.45;;;16.00;;
19149;SDS011;9707;49.158;8.632;2022-12-13T03:48:28;25.48;;;16.02;;
19149;SDS011;9707;49.158;8.632;2022-12-13T03:50:53;28.50;;;16.38;;
19149;SDS011;9707;49.158;8.632;2022-12-13T03:53:20;24.33;;;14.85;;
19149;SDS011;9707;49.158;8.632;2022-12-13T03:55:46;23.05;;;15.27;;
19149;SDS011;9707;49.158;8.632;2022-12-13T03:58:11;24.40;;;15.07;;
19149;SDS011;9707;49.158;8.632;2022-12-13T04:00:37;24.77;;;15.40;;
19149;SDS011;9707;49.158;8.632;2022-12-13T04:03:02;26.65;;;15.55;;
19149;SDS011;9707;49.158;8.632;2022-12-13T04:05:28;25.55;;;15.27;;
19149;SDS011;9707;49.158;8.632;2022-12-13T04:07:54;24.52;;;15.00;;
19149;SDS011;9707;49.158;8.632;2022-12-13T04:10:20;26.13;;;16.48;;
19149;SDS011;9707;49.158;8.632;2022-12-13T04:12:45;22.90;;;14.55;;
19149;SDS011;9707;49.158;8.632;2022-12-13T04:15:29;22.42;;;14.85;;
19149;SDS011;9707;49.158;8.632;2022-12-13T04:17:54;24.27;;;14.05;;
19149;SDS011;9707;49.158;8.632;2022-12-13T04:20:19;27.48;;;15.60;;
19149;SDS011;9707;49.158;8.632;2022-12-13T04:22:45;25.27;;;15.48;;
19149;SDS011;9707;49.158;8.632;2022-12-13T04:25:10;25.75;;;16.13;;
19149;SDS011;9707;49.158;8.632;2022-12-13T04:27:35;26.08;;;15.45;;
19149;SDS011;9707;49.158;8.632;2022-12-13T04:30:02;22.58;;;15.13;;
19149;SDS011;9707;49.158;8.632;2022-12-13T04:32:29;27.50;;;15.80;;
19149;SDS011;9707;49.158;8.632;2022-12-13T04:34:54;24.45;;;15.50;;
19149;SDS011;9707;49.158;8.632;2022-12-13T04:37:19;28.23;;;16.38;;
19149;SDS011;9707;49.158;8.632;2022-12-13T04:39:44;25.20;;;15.00;;
19149;SDS011;9707;49.158;8.632;2022-12-13T04:42:10;25.48;;;14.52;;
19149;SDS011;9707;49.158;8.632;2022-12-13T04:44:35;27.20;;;16.23;;
19149;SDS011;9707;49.158;8.632;2022-12-13T04:47:00;25.50;;;16.80;;
19149;SDS011;9707;49.158;8.632;2022-12-13T04:49:27;21.95;;;14.55;;
19149;SDS011;9707;49.158;8.632;2022-12-13T04:51:53;25.05;;;14.93;;
19149;SDS011;9707;49.158;8.632;2022-12-13T04:54:18;27.08;;;15.75;;
19149;SDS011;9707;49.158;8.632;2022-12-13T04:56:43;22.80;;;14.60;;
19149;SDS011;9707;49.158;8.632;2022-12-13T04:59:08;25.88;;;14.80;;
19149;SDS011;9707;49.158;8.632;2022-12-13T05:01:34;23.63;;;15.25;;
19149;SDS011;9707;49.158;8.632;2022-12-13T05:04:02;27.80;;;15.52;;
19149;SDS011;9707;49.158;8.632;2022-12-13T05:06:28;22.20;;;15.23;;
19149;SDS011;9707;49.158;8.632;2022-12-13T05:08:53;21.20;;;14.85;;
19149;SDS011;9707;49.158;8.632;2022-12-13T05:11:19;25.33;;;15.68;;
19149;SDS011;9707;49.158;8.632;2022-12-13T05:13:45;23.55;;;15.57;;
19149;SDS011;9707;49.158;8.632;2022-12-13T05:16:10;24.52;;;15.38;;
19149;SDS011;9707;49.158;8.632;2022-12-13T05:18:36;23.77;;;14.40;;
19149;SDS011;9707;49.158;8.632;2022-12-13T05:21:06;24.52;;;15.65;;
19149;SDS011;9707;49.158;8.632;2022-12-13T05:23:34;23.10;;;15.13;;
19149;SDS011;9707;49.158;8.632;2022-12-13T05:26:00;21.73;;;14.00;;
19149;SDS011;9707;49.158;8.632;2022-12-13T05:28:26;25.65;;;16.67;;
19149;SDS011;9707;49.158;8.632;2022-12-13T05:31:04;27.50;;;17.35;;
19149;SDS011;9707;49.158;8.632;2022-12-13T05:33:31;26.25;;;16.77;;
19149;SDS011;9707;49.158;8.632;2022-12-13T05:35:57;28.45;;;17.08;;
19149;SDS011;9707;49.158;8.632;2022-12-13T05:38:22;22.52;;;15.73;;
19149;SDS011;9707;49.158;8.632;2022-12-13T05:40:47;27.10;;;16.60;;
19149;SDS011;9707;49.158;8.632;2022-12-13T05:43:13;28.33;;;16.77;;
19149;SDS011;9707;49.158;8.632;2022-12-13T05:45:38;28.40;;;17.83;;
19149;SDS011;9707;49.158;8.632;2022-12-13T05:48:03;30.52;;;16.92;;
19149;SDS011;9707;49.158;8.632;2022-12-13T05:50:29;28.00;;;16.85;;
19149;SDS011;9707;49.158;8.632;2022-12-13T05:52:54;26.83;;;16.45;;
19149;SDS011;9707;49.158;8.632;2022-12-13T05:55:19;25.83;;;16.25;;
19149;SDS011;9707;49.158;8.632;2022-12-13T05:57:45;25.27;;;16.80;;
19149;SDS011;9707;49.158;8.632;2022-12-13T06:00:10;25.48;;;15.80;;
19149;SDS011;9707;49.158;8.632;2022-12-13T06:02:36;30.85;;;19.33;;
19149;SDS011;9707;49.158;8.632;2022-12-13T06:05:02;32.42;;;21.73;;
19149;SDS011;9707;49.158;8.632;2022-12-13T06:07:28;28.92;;;20.40;;
19149;SDS011;9707;49.158;8.632;2022-12-13T06:09:53;28.15;;;16.70;;
19149;SDS011;9707;49.158;8.632;2022-12-13T06:12:18;25.65;;;16.85;;
19149;SDS011;9707;49.158;8.632;2022-12-13T06:14:44;24.13;;;15.32;;
19149;SDS011;9707;49.158;8.632;2022-12-13T06:17:09;27.00;;;16.02;;
19149;SDS011;9707;49.158;8.632;2022-12-13T06:19:35;24.95;;;15.52;;
19149;SDS011;9707;49.158;8.632;2022-12-13T06:22:00;24.50;;;14.85;;
19149;SDS011;9707;49.158;8.632;2022-12-13T06:24:25;21.85;;;14.18;;
19149;SDS011;9707;49.158;8.632;2022-12-13T06:26:51;25.75;;;16.08;;
19149;SDS011;9707;49.158;8.632;2022-12-13T06:29:17;24.02;;;15.13;;
19149;SDS011;9707;49.158;8.632;2022-12-13T06:31:44;25.63;;;15.70;;
19149;SDS011;9707;49.158;8.632;2022-12-13T06:34:09;24.65;;;15.02;;
19149;SDS011;9707;49.158;8.632;2022-12-13T06:36:35;23.90;;;15.00;;
19149;SDS011;9707;49.158;8.632;2022-12-13T06:39:01;27.42;;;15.52;;
19149;SDS011;9707;49.158;8.632;2022-12-13T06:41:27;20.58;;;13.88;;
19149;SDS011;9707;49.158;8.632;2022-12-13T06:43:53;25.80;;;14.77;;
19149;SDS011;9707;49.158;8.632;2022-12-13T06:46:18;24.77;;;16.33;;
19149;SDS011;9707;49.158;8.632;2022-12-13T06:48:43;25.42;;;15.55;;
19149;SDS011;9707;49.158;8.632;2022-12-13T06:51:09;24.23;;;16.10;;
19149;SDS011;9707;49.158;8.632;2022-12-13T06:53:35;26.30;;;16.90;;
19149;SDS011;9707;49.158;8.632;2022-12-13T06:56:02;23.98;;;14.48;;
19149;SDS011;9707;49.158;8.632;2022-12-13T06:58:32;24.70;;;14.65;;
19149;SDS011;9707;49.158;8.632;2022-12-13T07:01:02;26.58;;;16.95;;
19149;SDS011;9707;49.158;8.632;2022-12-13T07:03:34;28.83;;;18.98;;
19149;SDS011;9707;49.158;8.632;2022-12-13T07:06:04;32.47;;;19.33;;
19149;SDS011;9707;49.158;8.632;2022-12-13T07:08:30;32.67;;;19.38;;
19149;SDS011;9707;49.158;8.632;2022-12-13T07:10:56;32.65;;;21.25;;
19149;SDS011;9707;49.158;8.632;2022-12-13T07:13:22;34.42;;;22.50;;
19149;SDS011;9707;49.158;8.632;2022-12-13T07:15:47;33.88;;;21.42;;
19149;SDS011;9707;49.158;8.632;2022-12-13T07:18:13;30.52;;;20.48;;
19149;SDS011;9707;49.158;8.632;2022-12-13T07:20:38;31.42;;;21.00;;
19149;SDS011;9707;49.158;8.632;2022-12-13T07:23:04;32.30;;;19.38;;
19149;SDS011;9707;49.158;8.632;2022-12-13T07:25:30;29.75;;;18.40;;
19149;SDS011;9707;49.158;8.632;2022-12-13T07:27:56;29.70;;;18.58;;
19149;SDS011;9707;49.158;8.632;2022-12-13T07:30:23;30.05;;;18.08;;
19149;SDS011;9707;49.158;8.632;2022-12-13T07:32:48;29.50;;;17.70;;
19149;SDS011;9707;49.158;8.632;2022-12-13T07:35:13;29.83;;;18.27;;
19149;SDS011;9707;49.158;8.632;2022-12-13T07:37:39;31.10;;;19.10;;
19149;SDS011;9707;49.158;8.632;2022-12-13T07:40:04;30.88;;;18.63;;
19149;SDS011;9707;49.158;8.632;2022-12-13T07:42:31;27.83;;;16.92;;
19149;SDS011;9707;49.158;8.632;2022-12-13T07:44:57;29.05;;;17.77;;
19149;SDS011;9707;49.158;8.632;2022-12-13T07:47:22;31.73;;;18.02;;
19149;SDS011;9707;49.158;8.632;2022-12-13T07:49:54;28.55;;;17.45;;
19149;SDS011;9707;49.158;8.632;2022-12-13T07:52:19;27.40;;;17.08;;
19149;SDS011;9707;49.158;8.632;2022-12-13T07:54:44;27.33;;;16.90;;
19149;SDS011;9707;49.158;8.632;2022-12-13T07:57:10;26.88;;;16.85;;
19149;SDS011;9707;49.158;8.632;2022-12-13T07:59:35;31.38;;;17.80;;
19149;SDS011;9707;49.158;8.632;2022-12-13T08:02:00;29.70;;;18.77;;
19149;SDS011;9707;49.158;8.632;2022-12-13T08:04:26;31.08;;;19.20;;
19149;SDS011;9707;49.158;8.632;2022-12-13T08:06:51;33.03;;;20.42;;
19149;SDS011;9707;49.158;8.632;2022-12-13T08:09:17;29.67;;;19.58;;
19149;SDS011;9707;49.158;8.632;2022-12-13T08:11:42;33.00;;;21.00;;
19149;SDS011;9707;49.158;8.632;2022-12-13T08:14:07;35.83;;;22.42;;
19149;SDS011;9707;49.158;8.632;2022-12-13T08:16:33;39.25;;;22.25;;
19149;SDS011;9707;49.158;8.632;2022-12-13T08:18:58;34.00;;;21.90;;
19149;SDS011;9707;49.158;8.632;2022-12-13T08:21:24;33.05;;;19.25;;
19149;SDS011;9707;49.158;8.632;2022-12-13T08:23:49;28.52;;;17.40;;
19149;SDS011;9707;49.158;8.632;2022-12-13T08:26:15;28.25;;;18.02;;
19149;SDS011;9707;49.158;8.632;2022-12-13T08:28:40;27.38;;;17.15;;
19149;SDS011;9707;49.158;8.632;2022-12-13T08:31:10;25.75;;;17.00;;
19149;SDS011;9707;49.158;8.632;2022-12-13T08:33:37;26.02;;;16.95;;
19149;SDS011;9707;49.158;8.632;2022-12-13T08:36:10;27.35;;;17.08;;
19149;SDS011;9707;49.158;8.632;2022-12-13T08:38:39;31.02;;;19.70;;
19149;SDS011;9707;49.158;8.632;2022-12-13T08:41:05;33.47;;;18.85;;
19149;SDS011;9707;49.158;8.632;2022-12-13T08:43:30;28.23;;;17.55;;
19149;SDS011;9707;49.158;8.632;2022-12-13T08:45:56;25.52;;;16.40;;
19149;SDS011;9707;49.158;8.632;2022-12-13T08:48:21;27.00;;;16.73;;
19149;SDS011;9707;49.158;8.632;2022-12-13T08:50:47;24.75;;;16.92;;
19149;SDS011;9707;49.158;8.632;2022-12-13T08:53:12;28.15;;;17.48;;
19149;SDS011;9707;49.158;8.632;2022-12-13T08:55:37;26.95;;;18.35;;
19149;SDS011;9707;49.158;8.632;2022-12-13T08:58:03;23.60;;;15.75;;
19149;SDS011;9707;49.158;8.632;2022-12-13T09:00:32;21.92;;;13.52;;
19149;SDS011;9707;49.158;8.632;2022-12-13T09:02:58;20.05;;;12.82;;
19149;SDS011;9707;49.158;8.632;2022-12-13T09:05:23;18.98;;;12.68;;
19149;SDS011;9707;49.158;8.632;2022-12-13T09:07:53;18.17;;;10.15;;
19149;SDS011;9707;49.158;8.632;2022-12-13T09:10:20;17.55;;;10.45;;
19149;SDS011;9707;49.158;8.632;2022-12-13T09:12:45;16.67;;;10.05;;
19149;SDS011;9707;49.158;8.632;2022-12-13T09:15:10;15.40;;;8.93;;
19149;SDS011;9707;49.158;8.632;2022-12-13T09:17:36;18.13;;;12.13;;
19149;SDS011;9707;49.158;8.632;2022-12-13T09:20:01;15.77;;;10.60;;
19149;SDS011;9707;49.158;8.632;2022-12-13T09:22:27;18.27;;;10.68;;
19149;SDS011;9707;49.158;8.632;2022-12-13T09:24:52;15.55;;;10.70;;
19149;SDS011;9707;49.158;8.632;2022-12-13T09:27:17;18.27;;;11.75;;
19149;SDS011;9707;49.158;8.632;2022-12-13T09:29:43;17.52;;;10.77;;
19149;SDS011;9707;49.158;8.632;2022-12-13T09:32:10;21.15;;;12.70;;
19149;SDS011;9707;49.158;8.632;2022-12-13T09:34:35;17.60;;;11.65;;
19149;SDS011;9707;49.158;8.632;2022-12-13T09:37:00;20.48;;;11.23;;
19149;SDS011;9707;49.158;8.632;2022-12-13T09:39:26;16.67;;;11.05;;
19149;SDS011;9707;49.158;8.632;2022-12-13T09:41:51;18.45;;;12.15;;
19149;SDS011;9707;49.158;8.632;2022-12-13T09:44:20;16.98;;;9.25;;
19149;SDS011;9707;49.158;8.632;2022-12-13T09:46:48;15.00;;;9.88;;
19149;SDS011;9707;49.158;8.632;2022-12-13T09:51:53;23.15;;;11.60;;
19149;SDS011;9707;49.158;8.632;2022-12-13T09:54:24;17.38;;;11.80;;
19149;SDS011;9707;49.158;8.632;2022-12-13T09:56:50;18.25;;;8.93;;
19149;SDS011;9707;49.158;8.632;2022-12-13T09:59:27;14.50;;;8.80;;
19149;SDS011;9707;49.158;8.632;2022-12-13T10:02:06;15.98;;;11.02;;
19149;SDS011;9707;49.158;8.632;2022-12-13T10:04:42;15.75;;;9.25;;
19149;SDS011;9707;49.158;8.632;2022-12-13T10:07:18;21.50;;;10.57;;
19149;SDS011;9707;49.158;8.632;2022-12-13T10:09:48;18.75;;;9.85;;
19149;SDS011;9707;49.158;8.632;2022-12-13T10:12:16;14.32;;;8.07;;
19149;SDS011;9707;49.158;8.632;2022-12-13T10:14:42;16.08;;;9.65;;
19149;SDS011;9707;49.158;8.632;2022-12-13T10:17:16;15.15;;;9.45;;
19149;SDS011;9707;49.158;8.632;2022-12-13T10:19:45;19.25;;;11.52;;
19149;SDS011;9707;49.158;8.632;2022-12-13T10:22:15;25.02;;;12.13;;
19149;SDS011;9707;49.158;8.632;2022-12-13T10:24:58;14.45;;;9.55;;
19149;SDS011;9707;49.158;8.632;2022-12-13T10:32:42;16.55;;;11.00;;
19149;SDS011;9707;49.158;8.632;2022-12-13T10:35:10;20.67;;;10.00;;
19149;SDS011;9707;49.158;8.632;2022-12-13T10:37:47;14.70;;;9.48;;
19149;SDS011;9707;49.158;8.632;2022-12-13T10:40:23;16.58;;;10.45;;
19149;SDS011;9707;49.158;8.632;2022-12-13T10:43:04;18.55;;;10.40;;
19149;SDS011;9707;49.158;8.632;2022-12-13T10:45:30;15.52;;;9.35;;
19149;SDS011;9707;49.158;8.632;2022-12-13T10:47:55;13.60;;;8.07;;
19149;SDS011;9707;49.158;8.632;2022-12-13T10:50:24;13.43;;;8.88;;
19149;SDS011;9707;49.158;8.632;2022-12-13T10:52:52;13.80;;;10.02;;
19149;SDS011;9707;49.158;8.632;2022-12-13T10:57:51;11.73;;;7.68;;
19149;SDS011;9707;49.158;8.632;2022-12-13T11:03:32;11.18;;;7.65;;
19149;SDS011;9707;49.158;8.632;2022-12-13T11:06:06;10.50;;;7.53;;
19149;SDS011;9707;49.158;8.632;2022-12-13T11:08:37;15.02;;;9.70;;
19149;SDS011;9707;49.158;8.632;2022-12-13T11:11:04;24.40;;;11.48;;
19149;SDS011;9707;49.158;8.632;2022-12-13T11:19:03;13.32;;;7.68;;
19149;SDS011;9707;49.158;8.632;2022-12-13T11:21:39;16.60;;;9.90;;
19149;SDS011;9707;49.158;8.632;2022-12-13T11:24:14;19.90;;;11.18;;
19149;SDS011;9707;49.158;8.632;2022-12-13T11:26:52;18.20;;;9.57;;
19149;SDS011;9707;49.158;8.632;2022-12-13T11:32:13;10.50;;;6.68;;
19149;SDS011;9707;49.158;8.632;2022-12-13T11:37:32;20.73;;;11.52;;
19149;SDS011;9707;49.158;8.632;2022-12-13T11:40:10;14.43;;;9.95;;
19149;SDS011;9707;49.158;8.632;2022-12-13T11:42:46;16.83;;;10.85;;
19149;SDS011;9707;49.158;8.632;2022-12-13T11:47:55;24.65;;;12.13;;
19149;SDS011;9707;49.158;8.632;2022-12-13T11:50:33;17.67;;;10.57;;
19149;SDS011;9707;49.158;8.632;2022-12-13T11:58:30;11.90;;;7.75;;
19149;SDS011;9707;49.158;8.632;2022-12-13T12:01:14;16.90;;;11.98;;
19149;SDS011;9707;49.158;8.632;2022-12-13T12:03:49;13.98;;;8.75;;
19149;SDS011;9707;49.158;8.632;2022-12-13T12:06:21;13.60;;;7.70;;
19149;SDS011;9707;49.158;8.632;2022-12-13T12:09:05;14.20;;;9.98;;
19149;SDS011;9707;49.158;8.632;2022-12-13T12:17:15;19.52;;;10.60;;
19149;SDS011;9707;49.158;8.632;2022-12-13T12:19:48;16.17;;;10.27;;
19149;SDS011;9707;49.158;8.632;2022-12-13T12:25:23;17.73;;;10.25;;
19149;SDS011;9707;49.158;8.632;2022-12-13T12:36:07;17.77;;;11.00;;
19149;SDS011;9707;49.158;8.632;2022-12-13T12:44:41;22.73;;;11.73;;
19149;SDS011;9707;49.158;8.632;2022-12-13T12:47:29;16.35;;;10.38;;
19149;SDS011;9707;49.158;8.632;2022-12-13T12:50:02;13.80;;;9.30;;
19149;SDS011;9707;49.158;8.632;2022-12-13T12:52:41;13.60;;;7.72;;
19149;SDS011;9707;49.158;8.632;2022-12-13T12:58:09;15.68;;;10.43;;
19149;SDS011;9707;49.158;8.632;2022-12-13T13:00:42;14.88;;;7.60;;
19149;SDS011;9707;49.158;8.632;2022-12-13T13:03:20;14.80;;;8.82;;
19149;SDS011;9707;49.158;8.632;2022-12-13T13:05:50;10.85;;;6.80;;
19149;SDS011;9707;49.158;8.632;2022-12-13T13:10:43;21.52;;;11.15;;
19149;SDS011;9707;49.158;8.632;2022-12-13T13:16:29;15.98;;;10.35;;
19149;SDS011;9707;49.158;8.632;2022-12-13T13:18:58;12.77;;;8.70;;
19149;SDS011;9707;49.158;8.632;2022-12-13T13:26:28;14.20;;;8.13;;
19149;SDS011;9707;49.158;8.632;2022-12-13T13:29:15;21.25;;;12.32;;
19149;SDS011;9707;49.158;8.632;2022-12-13T13:31:55;15.55;;;9.52;;
19149;SDS011;9707;49.158;8.632;2022-12-13T13:34:21;12.07;;;7.57;;
19149;SDS011;9707;49.158;8.632;2022-12-13T13:36:52;16.10;;;9.75;;
19149;SDS011;9707;49.158;8.632;2022-12-13T13:41:52;20.77;;;12.23;;
19149;SDS011;9707;49.158;8.632;2022-12-13T13:44:32;15.32;;;10.25;;
19149;SDS011;9707;49.158;8.632;2022-12-13T13:47:13;14.75;;;10.13;;
19149;SDS011;9707;49.158;8.632;2022-12-13T13:55:47;20.42;;;10.07;;
19149;SDS011;9707;49.158;8.632;2022-12-13T14:10:13;15.10;;;10.35;;
19149;SDS011;9707;49.158;8.632;2022-12-13T14:29:13;16.48;;;10.65;;
19149;SDS011;9707;49.158;8.632;2022-12-13T14:34:06;14.85;;;8.93;;
19149;SDS011;9707;49.158;8.632;2022-12-13T14:36:43;18.50;;;11.77;;
19149;SDS011;9707;49.158;8.632;2022-12-13T14:39:14;14.75;;;9.57;;
19149;SDS011;9707;49.158;8.632;2022-12-13T14:41:47;14.60;;;10.07;;
19149;SDS011;9707;49.158;8.632;2022-12-13T14:44:24;13.38;;;8.68;;
19149;SDS011;9707;49.158;8.632;2022-12-13T14:49:17;13.80;;;8.40;;
19149;SDS011;9707;49.158;8.632;2022-12-13T14:51:43;18.13;;;10.32;;
19149;SDS011;9707;49.158;8.632;2022-12-13T14:54:21;14.65;;;8.80;;
19149;SDS011;9707;49.158;8.632;2022-12-13T14:56:53;16.55;;;9.75;;
19149;SDS011;9707;49.158;8.632;2022-12-13T14:59:20;14.65;;;9.77;;
19149;SDS011;9707;49.158;8.632;2022-12-13T15:01:51;14.70;;;8.93;;
19149;SDS011;9707;49.158;8.632;2022-12-13T15:04:26;15.10;;;9.48;;
19149;SDS011;9707;49.158;8.632;2022-12-13T15:09:41;12.43;;;7.97;;
19149;SDS011;9707;49.158;8.632;2022-12-13T15:12:12;16.42;;;8.88;;
19149;SDS011;9707;49.158;8.632;2022-12-13T15:14:44;14.73;;;9.35;;
19149;SDS011;9707;49.158;8.632;2022-12-13T15:17:25;15.00;;;9.43;;
19149;SDS011;9707;49.158;8.632;2022-12-13T15:20:21;15.60;;;10.15;;
19149;SDS011;9707;49.158;8.632;2022-12-13T15:22:47;16.88;;;10.82;;
19149;SDS011;9707;49.158;8.632;2022-12-13T15:25:20;18.02;;;11.32;;
19149;SDS011;9707;49.158;8.632;2022-12-13T15:27:46;18.40;;;10.88;;
19149;SDS011;9707;49.158;8.632;2022-12-13T15:30:15;21.92;;;12.50;;
19149;SDS011;9707;49.158;8.632;2022-12-13T15:33:00;17.05;;;9.70;;
19149;SDS011;9707;49.158;8.632;2022-12-13T15:35:27;24.17;;;12.52;;
19149;SDS011;9707;49.158;8.632;2022-12-13T15:37:52;20.23;;;11.05;;
19149;SDS011;9707;49.158;8.632;2022-12-13T15:40:18;17.98;;;10.63;;
19149;SDS011;9707;49.158;8.632;2022-12-13T15:42:44;17.35;;;10.60;;
19149;SDS011;9707;49.158;8.632;2022-12-13T15:45:20;17.67;;;11.57;;
19149;SDS011;9707;49.158;8.632;2022-12-13T15:47:49;18.60;;;11.38;;
19149;SDS011;9707;49.158;8.632;2022-12-13T15:50:30;18.13;;;10.15;;
19149;SDS011;9707;49.158;8.632;2022-12-13T15:53:05;12.88;;;7.72;;
19149;SDS011;9707;49.158;8.632;2022-12-13T15:55:45;19.00;;;11.32;;
19149;SDS011;9707;49.158;8.632;2022-12-13T15:58:28;14.57;;;8.52;;
19149;SDS011;9707;49.158;8.632;2022-12-13T16:00:57;17.63;;;9.15;;
19149;SDS011;9707;49.158;8.632;2022-12-13T16:03:28;16.20;;;9.60;;
19149;SDS011;9707;49.158;8.632;2022-12-13T16:06:03;13.05;;;8.90;;
19149;SDS011;9707;49.158;8.632;2022-12-13T16:08:31;15.70;;;10.15;;
19149;SDS011;9707;49.158;8.632;2022-12-13T16:11:02;14.18;;;9.20;;
19149;SDS011;9707;49.158;8.632;2022-12-13T16:13:33;14.93;;;9.15;;
19149;SDS011;9707;49.158;8.632;2022-12-13T16:19:11;11.88;;;7.47;;
19149;SDS011;9707;49.158;8.632;2022-12-13T16:21:39;14.88;;;9.52;;
19149;SDS011;9707;49.158;8.632;2022-12-13T16:24:05;14.23;;;8.13;;
19149;SDS011;9707;49.158;8.632;2022-12-13T16:26:31;13.48;;;8.70;;
19149;SDS011;9707;49.158;8.632;2022-12-13T16:28:58;16.15;;;9.90;;
19149;SDS011;9707;49.158;8.632;2022-12-13T16:31:24;17.15;;;9.30;;
19149;SDS011;9707;49.158;8.632;2022-12-13T16:33:59;12.32;;;8.07;;
19149;SDS011;9707;49.158;8.632;2022-12-13T16:36:24;14.25;;;9.23;;
19149;SDS011;9707;49.158;8.632;2022-12-13T16:38:50;14.55;;;8.35;;
19149;SDS011;9707;49.158;8.632;2022-12-13T16:41:15;14.93;;;9.23;;
19149;SDS011;9707;49.158;8.632;2022-12-13T16:43:59;18.67;;;11.27;;
19149;SDS011;9707;49.158;8.632;2022-12-13T16:46:27;13.80;;;8.65;;
19149;SDS011;9707;49.158;8.632;2022-12-13T16:48:53;14.73;;;9.65;;
19149;SDS011;9707;49.158;8.632;2022-12-13T16:51:18;13.88;;;9.45;;
19149;SDS011;9707;49.158;8.632;2022-12-13T16:53:44;14.63;;;9.73;;
19149;SDS011;9707;49.158;8.632;2022-12-13T16:56:10;13.15;;;8.07;;
19149;SDS011;9707;49.158;8.632;2022-12-13T16:58:40;15.73;;;9.48;;
19149;SDS011;9707;49.158;8.632;2022-12-13T17:01:07;13.18;;;8.82;;
19149;SDS011;9707;49.158;8.632;2022-12-13T17:03:37;12.98;;;9.00;;
19149;SDS011;9707;49.158;8.632;2022-12-13T17:06:03;16.15;;;10.68;;
19149;SDS011;9707;49.158;8.632;2022-12-13T17:08:28;14.75;;;9.50;;
19149;SDS011;9707;49.158;8.632;2022-12-13T17:10:54;10.50;;;7.50;;
19149;SDS011;9707;49.158;8.632;2022-12-13T17:13:20;12.43;;;8.48;;
19149;SDS011;9707;49.158;8.632;2022-12-13T17:15:45;14.07;;;9.18;;
19149;SDS011;9707;49.158;8.632;2022-12-13T17:18:10;14.73;;;9.52;;
19149;SDS011;9707;49.158;8.632;2022-12-13T17:20:36;17.90;;;11.75;;